Pagina principală
METAR-TAF:

METAR-TAF

Aeroporturi :

Tarawa, Kiribati

Latitudine: 01-21N, longitudine: 172-55E, elevație: 2 m

Observații meteo curente

Raportul a fost făcut în urmă cu 2 ore și 15 de minute, la 00:00 UTC
Vânt 9 kt de la Est/Nord-est
Temperatură 29°C
Umiditate 74%
Presiune 1008 hPa
Vizibilitate de 10 km sau mai mult
Nori împrăștiați la o înălțime de 1800 picior, Cumulus congestus.

METAR: NGTA 100000Z 07009KT 9999 SCT018TCU 29/24 Q1008

Ora: 16:15 (02:15 UTC)

Prognoză

Raportul a fost făcut în urmă cu 3 ore și 0 de minute, la 23:15 UTC
Prognoză valabilă de la 10 ora 00 UTC la 10 ora 24 UTC
Vânt 10 kt de la Est
Vizibilitate de 10 km sau mai mult
Nori puțini la o înălțime de 2000 picior

TAF: NGTA 092315Z 1000/1024 08010KT 9999 FEW020

Observații și prognoze meteo pentru peste 4.000 de aeroporturi (rapoarte METAR și TAF).

Stațiile disponibile sunt reprezentate pe hartă prin puncte galbene și roșii.

Țineți indicatorul mouse-ului pe punctul dorit pentru a vedea denumirea stației.

Apoi, faceți clic pentru a vedea observațiile și prognozele meteorologice.

Pentru a schimba harta: Pentru mărire, faceți clic pe butoanele verzi cu cruce neagră; pentru micșorare, pe butonul verde cu o liniuță; pentru hărți învecinate, pe săgețile verzi.


METAR-TAF: